createdAt,value
2023-03-24T00:01:02.354Z,101943.13
2023-03-24T00:03:33.004Z,101941.28
2023-03-24T00:06:06.409Z,101940.84
2023-03-24T00:08:39.478Z,101937.63
2023-03-24T00:11:13.232Z,101928.00
2023-03-24T00:13:45.021Z,101910.75
2023-03-24T00:16:21.172Z,101923.25
2023-03-24T00:18:54.613Z,101922.97
2023-03-24T00:21:28.103Z,101919.25
2023-03-24T00:24:00.312Z,101916.56
2023-03-24T00:26:32.043Z,101923.25
2023-03-24T00:29:03.666Z,101925.19
2023-03-24T00:31:35.725Z,101924.66
2023-03-24T00:34:08.480Z,101920.97
2023-03-24T00:36:40.164Z,101920.16
2023-03-24T00:39:11.546Z,101911.06
2023-03-24T00:41:42.392Z,101918.00
2023-03-24T00:44:19.917Z,101910.63
2023-03-24T00:47:01.567Z,101898.88
2023-03-24T00:49:48.435Z,101896.25
2023-03-24T00:52:26.797Z,101899.88
2023-03-24T00:54:59.885Z,101888.78
2023-03-24T00:57:36.480Z,101904.88
2023-03-24T01:00:16.109Z,101886.22
2023-03-24T01:02:55.072Z,101893.28
2023-03-24T01:05:32.781Z,101889.72
2023-03-24T01:08:04.829Z,101888.78
2023-03-24T01:10:52.088Z,101891.25
2023-03-24T01:13:28.887Z,101893.19
2023-03-24T01:16:00.539Z,101891.66
2023-03-24T01:18:32.163Z,101894.09
2023-03-24T01:21:04.055Z,101884.53
2023-03-24T01:23:36.122Z,101874.91
2023-03-24T01:26:10.356Z,101874.97
2023-03-24T01:28:45.382Z,101879.13
2023-03-24T01:31:17.686Z,101854.19
2023-03-24T01:33:49.035Z,101869.09
2023-03-24T01:36:20.541Z,101843.72
2023-03-24T01:38:51.956Z,101854.97
2023-03-24T01:41:23.643Z,101863.81
2023-03-24T01:43:55.048Z,101855.25
2023-03-24T01:46:25.850Z,101856.22
2023-03-24T01:49:07.747Z,101864.88
2023-03-24T01:51:47.964Z,101852.09
2023-03-24T01:54:43.252Z,101836.00
2023-03-24T01:57:25.922Z,101828.78
2023-03-24T01:59:59.753Z,101836.94
2023-03-24T02:02:56.426Z,101845.69
2023-03-24T02:05:35.982Z,101836.53
2023-03-24T02:08:23.307Z,101836.91
2023-03-24T02:10:56.982Z,101830.41
2023-03-24T02:13:33.424Z,101814.88
2023-03-24T02:16:32.278Z,101821.69
2023-03-24T02:19:28.168Z,101816.22
2023-03-24T02:21:59.538Z,101808.69
2023-03-24T02:24:30.737Z,101808.25
2023-03-24T02:27:23.055Z,101787.47
2023-03-24T02:30:25.842Z,101792.06
2023-03-24T02:33:29.471Z,101793.16
2023-03-24T02:36:38.574Z,101787.50
2023-03-24T02:39:19.298Z,101783.84
2023-03-24T02:41:53.942Z,101782.38
2023-03-24T02:44:51.093Z,101785.78
2023-03-24T02:47:32.713Z,101800.84
2023-03-24T02:50:28.454Z,101784.22
2023-03-24T02:53:08.858Z,101782.84
2023-03-24T02:55:58.254Z,101779.69
2023-03-24T02:58:32.976Z,101782.81
2023-03-24T03:01:11.037Z,101781.13
2023-03-24T03:04:12.117Z,101762.88
2023-03-24T03:06:47.126Z,101764.38
2023-03-24T03:09:20.520Z,101779.13
2023-03-24T03:11:54.199Z,101759.97
2023-03-24T03:14:50.704Z,101761.34
2023-03-24T03:17:25.338Z,101771.44
2023-03-24T03:20:06.491Z,101759.69
2023-03-24T03:22:49.211Z,101765.69
2023-03-24T03:25:24.669Z,101743.63
2023-03-24T03:28:02.617Z,101769.81
2023-03-24T03:30:41.677Z,101764.31
2023-03-24T03:33:26.517Z,101757.06
2023-03-24T03:36:08.218Z,101760.69
2023-03-24T03:41:33.143Z,101738.34
2023-03-24T03:44:05.302Z,101746.53
2023-03-24T03:46:37.386Z,101749.94
2023-03-24T03:49:12.480Z,101741.53
2023-03-24T03:51:44.036Z,101743.31
2023-03-24T03:54:14.786Z,101744.97
2023-03-24T03:56:51.473Z,101742.94
2023-03-24T03:59:37.712Z,101731.44
2023-03-24T04:02:35.728Z,101742.66
2023-03-24T04:05:19.398Z,101734.03
2023-03-24T04:08:24.061Z,101735.03
2023-03-24T04:11:04.313Z,101737.16
2023-03-24T04:13:53.412Z,101737.28
2023-03-24T04:17:12.501Z,101740.72
2023-03-24T04:20:07.162Z,101741.03
2023-03-24T04:22:41.473Z,101739.31
2023-03-24T04:25:37.821Z,101730.09
2023-03-24T04:28:20.702Z,101732.28
2023-03-24T04:31:19.434Z,101729.63
2023-03-24T04:33:59.836Z,101721.50
2023-03-24T04:36:44.017Z,101716.41
2023-03-24T04:39:32.384Z,101715.84
2023-03-24T04:42:10.293Z,101724.72
2023-03-24T04:44:43.285Z,101724.84
2023-03-24T04:47:40.136Z,101727.56
2023-03-24T04:50:34.262Z,101722.56
2023-03-24T04:53:12.015Z,101724.44
2023-03-24T04:55:46.702Z,101723.00
2023-03-24T04:58:19.354Z,101718.25
2023-03-24T05:00:52.916Z,101730.53
2023-03-24T05:03:24.485Z,101727.09
2023-03-24T05:05:56.330Z,101735.63
2023-03-24T05:08:27.944Z,101713.63
2023-03-24T05:10:58.677Z,101739.19
2023-03-24T05:13:30.700Z,101746.09
2023-03-24T05:16:05.455Z,101736.03
2023-03-24T05:18:52.023Z,101738.38
2023-03-24T05:21:23.456Z,101732.88
2023-03-24T05:23:55.299Z,101733.28
2023-03-24T05:26:29.969Z,101738.28
2023-03-24T05:29:16.905Z,101740.59
2023-03-24T05:31:49.073Z,101711.34
2023-03-24T05:34:24.382Z,101729.69
2023-03-24T05:37:18.401Z,101729.88
2023-03-24T05:39:55.574Z,101730.81
2023-03-24T05:42:47.480Z,101704.47
2023-03-24T05:45:19.554Z,101715.78
2023-03-24T05:47:52.873Z,101717.88
2023-03-24T05:50:30.972Z,101716.03
2023-03-24T05:53:03.517Z,101717.22
2023-03-24T05:56:04.466Z,101696.47
2023-03-24T05:58:54.046Z,101724.06
2023-03-24T06:01:27.095Z,101727.09
2023-03-24T06:04:05.747Z,101726.56
2023-03-24T06:06:37.587Z,101722.19
2023-03-24T06:09:09.331Z,101729.31
2023-03-24T06:11:40.139Z,101737.25
2023-03-24T06:14:13.366Z,101745.41
2023-03-24T06:17:00.730Z,101757.72
2023-03-24T06:19:35.416Z,101755.75
2023-03-24T06:22:23.245Z,101763.88
2023-03-24T06:24:55.280Z,101766.53
2023-03-24T06:27:31.967Z,101758.91
2023-03-24T06:30:04.253Z,101765.44
2023-03-24T06:32:36.195Z,101760.81
2023-03-24T06:35:07.101Z,101757.75
2023-03-24T06:37:46.419Z,101761.00
2023-03-24T06:40:19.120Z,101760.72
2023-03-24T06:42:58.022Z,101761.16
2023-03-24T06:45:31.883Z,101764.13
2023-03-24T06:48:04.008Z,101768.13
2023-03-24T06:50:37.672Z,101766.81
2023-03-24T06:53:13.183Z,101772.47
2023-03-24T06:55:45.245Z,101759.75
2023-03-24T06:58:19.353Z,101772.91
2023-03-24T07:01:04.289Z,101776.69
2023-03-24T07:03:43.717Z,101774.72
2023-03-24T07:06:24.302Z,101754.69
2023-03-24T07:09:00.283Z,101784.38
2023-03-24T07:11:33.902Z,101786.06
2023-03-24T07:14:07.462Z,101792.41
2023-03-24T07:16:40.199Z,101790.88
2023-03-24T07:19:36.467Z,101799.03
2023-03-24T07:22:25.881Z,101794.50
2023-03-24T07:25:16.506Z,101793.50
2023-03-24T07:27:59.159Z,101797.63
2023-03-24T07:30:39.826Z,101797.03
2023-03-24T07:33:14.664Z,101800.28
2023-03-24T07:35:48.815Z,101798.00
2023-03-24T07:38:21.250Z,101802.25
2023-03-24T07:40:55.538Z,101799.00
2023-03-24T07:43:27.200Z,101803.41
2023-03-24T07:46:20.971Z,101815.63
2023-03-24T07:48:52.488Z,101815.84
2023-03-24T07:51:23.576Z,101817.44
2023-03-24T07:54:00.041Z,101817.81
2023-03-24T07:56:41.618Z,101798.97
2023-03-24T07:59:15.409Z,101819.28
2023-03-24T08:02:22.592Z,101830.97
2023-03-24T08:05:16.020Z,101824.41
2023-03-24T08:07:59.794Z,101831.34
2023-03-24T08:10:32.945Z,101844.00
2023-03-24T08:13:04.940Z,101847.66
2023-03-24T08:15:37.433Z,101843.44
2023-03-24T08:18:09.200Z,101833.19
2023-03-24T08:20:40.657Z,101836.66
2023-03-24T08:23:23.255Z,101823.09
2023-03-24T08:25:58.796Z,101843.00
2023-03-24T08:28:30.305Z,101861.09
2023-03-24T08:31:02.313Z,101857.25
2023-03-24T08:33:33.646Z,101852.56
2023-03-24T08:36:05.007Z,101851.91
2023-03-24T08:38:40.432Z,101853.00
2023-03-24T08:41:11.890Z,101861.84
2023-03-24T08:43:43.316Z,101869.19
2023-03-24T08:46:16.858Z,101866.38
2023-03-24T08:48:48.448Z,101857.72
2023-03-24T08:51:20.357Z,101855.34
2023-03-24T08:53:53.919Z,101857.31
2023-03-24T08:56:25.911Z,101851.31
2023-03-24T08:58:59.512Z,101862.41
2023-03-24T09:01:31.724Z,101860.56
2023-03-24T09:04:02.967Z,101862.41
2023-03-24T09:06:35.015Z,101855.56
2023-03-24T09:09:06.688Z,101853.03
2023-03-24T09:11:38.672Z,101853.41
2023-03-24T09:14:10.357Z,101855.78
2023-03-24T09:16:42.195Z,101850.53
2023-03-24T09:19:13.981Z,101853.69
2023-03-24T09:21:48.601Z,101860.19
2023-03-24T09:24:20.456Z,101857.38
2023-03-24T09:26:51.707Z,101855.84
2023-03-24T09:29:23.184Z,101851.94
2023-03-24T09:31:55.519Z,101859.97
2023-03-24T09:34:27.478Z,101854.22
2023-03-24T09:36:59.073Z,101849.75
2023-03-24T09:39:30.454Z,101854.13
2023-03-24T09:42:02.178Z,101861.53
2023-03-24T09:44:42.798Z,101862.72
2023-03-24T09:47:37.117Z,101858.31
2023-03-24T09:50:36.884Z,101853.56
2023-03-24T09:53:38.744Z,101840.69
2023-03-24T09:56:21.402Z,101852.38
2023-03-24T09:59:20.285Z,101848.00
2023-03-24T10:01:52.358Z,101846.09
2023-03-24T10:04:28.440Z,101845.06
2023-03-24T10:07:37.058Z,101858.84
2023-03-24T10:10:23.474Z,101864.59
2023-03-24T10:12:56.305Z,101855.78
2023-03-24T10:15:40.778Z,101848.81
2023-03-24T10:18:14.975Z,101845.78
2023-03-24T10:20:47.781Z,101840.81
2023-03-24T10:23:43.045Z,101838.47
2023-03-24T10:26:45.261Z,101835.28
2023-03-24T10:29:37.614Z,101826.34
2023-03-24T10:32:23.627Z,101830.72
2023-03-24T10:35:01.028Z,101823.28
2023-03-24T10:37:33.485Z,101815.13
2023-03-24T10:40:08.387Z,101824.44
2023-03-24T10:42:40.316Z,101819.84
2023-03-24T10:45:16.828Z,101814.09
2023-03-24T10:47:49.608Z,101811.59
2023-03-24T10:50:21.331Z,101814.44
2023-03-24T10:52:53.977Z,101823.38
2023-03-24T10:55:32.905Z,101820.44
2023-03-24T10:58:04.432Z,101812.81
2023-03-24T11:00:38.231Z,101809.69
2023-03-24T11:03:16.468Z,101814.66
2023-03-24T11:05:48.316Z,101814.50
2023-03-24T11:08:20.102Z,101806.72
2023-03-24T11:10:52.241Z,101807.34
2023-03-24T11:13:36.560Z,101807.88
2023-03-24T11:16:18.640Z,101808.16
2023-03-24T11:19:05.318Z,101804.84
2023-03-24T11:21:41.160Z,101806.41
2023-03-24T11:24:19.007Z,101798.25
2023-03-24T11:27:04.771Z,101798.25
2023-03-24T11:29:41.449Z,101802.97
2023-03-24T11:32:23.381Z,101797.59
2023-03-24T11:35:08.872Z,101779.91
2023-03-24T11:37:42.889Z,101811.53
2023-03-24T11:40:27.601Z,101798.78
2023-03-24T11:43:06.306Z,101799.13
2023-03-24T11:45:43.916Z,101808.50
2023-03-24T11:48:37.078Z,101805.94
2023-03-24T11:51:09.931Z,101817.09
2023-03-24T11:53:55.311Z,101822.41
2023-03-24T11:56:40.631Z,101831.59
2023-03-24T11:59:39.471Z,101828.88
2023-03-24T12:02:13.792Z,101828.28
2023-03-24T12:05:25.784Z,101822.00
2023-03-24T12:08:15.128Z,101828.44
2023-03-24T12:11:11.237Z,101832.06
2023-03-24T12:13:50.478Z,101826.19
2023-03-24T12:16:27.640Z,101831.66
2023-03-24T12:19:17.076Z,101827.81
2023-03-24T12:22:13.680Z,101819.84
2023-03-24T12:24:57.001Z,101834.41
2023-03-24T12:27:40.584Z,101835.03
2023-03-24T12:30:39.140Z,101827.59
2023-03-24T12:33:21.389Z,101808.19
2023-03-24T12:36:09.883Z,101834.19
2023-03-24T12:38:41.196Z,101838.94
2023-03-24T12:41:33.798Z,101836.03
2023-03-24T12:44:23.087Z,101836.91
2023-03-24T12:47:00.460Z,101839.00
2023-03-24T12:49:46.777Z,101839.88
2023-03-24T12:52:28.597Z,101832.34
2023-03-24T12:55:15.751Z,101831.97
2023-03-24T12:58:01.785Z,101825.38
2023-03-24T13:01:01.128Z,101814.41
2023-03-24T13:03:43.014Z,101816.41
2023-03-24T13:06:22.964Z,101808.19
2023-03-24T13:09:28.432Z,101825.81
2023-03-24T13:12:07.489Z,101811.22
2023-03-24T13:14:50.870Z,101809.75
2023-03-24T13:17:35.694Z,101804.34
2023-03-24T13:20:09.852Z,101807.06
2023-03-24T13:22:41.105Z,101827.66
2023-03-24T13:25:28.134Z,101819.50
2023-03-24T13:28:03.287Z,101815.53
2023-03-24T13:30:40.812Z,101813.88
2023-03-24T13:33:35.060Z,101810.38
2023-03-24T13:36:30.023Z,101803.97
2023-03-24T13:39:07.090Z,101808.97
2023-03-24T13:41:43.982Z,101822.06
2023-03-24T13:44:42.890Z,101819.09
2023-03-24T13:47:19.522Z,101825.06
2023-03-24T13:50:08.876Z,101831.72
2023-03-24T13:52:41.606Z,101834.22
2023-03-24T13:55:17.758Z,101837.25
2023-03-24T13:58:10.239Z,101838.38
2023-03-24T14:01:13.687Z,101832.59
2023-03-24T14:03:49.493Z,101839.75
2023-03-24T14:06:24.309Z,101809.94
2023-03-24T14:08:55.545Z,101820.97
2023-03-24T14:11:42.878Z,101822.00
2023-03-24T14:14:17.794Z,101824.59
2023-03-24T14:17:06.844Z,101813.78
2023-03-24T14:19:44.556Z,101816.22
2023-03-24T14:22:35.346Z,101818.06
2023-03-24T14:25:27.955Z,101822.75
2023-03-24T14:28:33.632Z,101826.47
2023-03-24T14:31:35.697Z,101813.72
2023-03-24T14:34:22.646Z,101806.75
2023-03-24T14:37:05.268Z,101815.47
2023-03-24T14:39:43.057Z,101815.69
2023-03-24T14:42:36.081Z,101808.59
2023-03-24T14:45:33.351Z,101809.25
2023-03-24T14:48:06.073Z,101809.38
2023-03-24T14:50:37.552Z,101799.09
2023-03-24T14:53:15.013Z,101804.25
2023-03-24T14:55:46.687Z,101798.88
2023-03-24T14:58:26.908Z,101791.06
2023-03-24T15:03:51.886Z,101808.25
2023-03-24T15:06:27.683Z,101804.72
2023-03-24T15:09:07.446Z,101809.19
2023-03-24T15:11:41.623Z,101805.69
2023-03-24T15:14:24.632Z,101800.56
2023-03-24T15:16:58.192Z,101793.47
2023-03-24T15:19:32.191Z,101788.50
2023-03-24T15:22:08.249Z,101766.63
2023-03-24T15:24:40.664Z,101779.91
2023-03-24T15:27:25.533Z,101793.53
2023-03-24T15:30:00.507Z,101796.03
2023-03-24T15:32:40.536Z,101790.59
2023-03-24T15:35:20.261Z,101792.53
2023-03-24T15:37:58.848Z,101793.94
2023-03-24T15:40:31.976Z,101789.41
2023-03-24T15:43:05.386Z,101789.25
2023-03-24T15:46:04.787Z,101783.66
2023-03-24T15:48:40.995Z,101794.88
2023-03-24T15:51:14.308Z,101790.94
2023-03-24T15:53:50.537Z,101786.84
2023-03-24T15:56:33.289Z,101795.91
2023-03-24T15:59:14.201Z,101795.69
2023-03-24T16:01:46.304Z,101795.91
2023-03-24T16:04:20.654Z,101780.81
2023-03-24T16:06:56.494Z,101782.06
2023-03-24T16:09:28.543Z,101783.75
2023-03-24T16:12:00.338Z,101788.28
2023-03-24T16:14:34.145Z,101776.31
2023-03-24T16:17:06.030Z,101781.88
2023-03-24T16:19:37.557Z,101779.41
2023-03-24T16:22:15.387Z,101784.16
2023-03-24T16:24:49.540Z,101784.34
2023-03-24T16:27:21.177Z,101781.06
2023-03-24T16:29:52.660Z,101784.13
2023-03-24T16:32:24.052Z,101782.72
2023-03-24T16:34:55.358Z,101790.38
2023-03-24T16:37:26.870Z,101787.06
2023-03-24T16:39:58.469Z,101793.66
2023-03-24T16:42:29.463Z,101787.47
2023-03-24T16:45:00.569Z,101792.00
2023-03-24T16:47:35.835Z,101789.53
2023-03-24T16:50:39.961Z,101784.56
2023-03-24T16:53:12.075Z,101796.97
2023-03-24T16:55:45.916Z,101793.44
2023-03-24T16:58:18.167Z,101784.50
2023-03-24T17:00:51.512Z,101793.63
2023-03-24T17:03:24.903Z,101787.44
2023-03-24T17:05:56.920Z,101791.56
2023-03-24T17:08:28.692Z,101785.78
2023-03-24T17:11:00.192Z,101782.91
2023-03-24T17:13:31.514Z,101784.97
2023-03-24T17:16:02.976Z,101778.16
2023-03-24T17:18:34.652Z,101780.84
2023-03-24T17:21:05.915Z,101773.00
2023-03-24T17:23:38.470Z,101765.13
2023-03-24T17:26:09.980Z,101767.00
2023-03-24T17:28:41.731Z,101756.88
2023-03-24T17:31:12.970Z,101721.09
2023-03-24T17:33:44.567Z,101756.03
2023-03-24T17:36:19.279Z,101757.69
2023-03-24T17:38:50.860Z,101765.34
2023-03-24T17:41:22.446Z,101760.78
2023-03-24T17:43:53.820Z,101758.94
2023-03-24T17:46:25.326Z,101762.03
2023-03-24T17:48:57.035Z,101761.41
2023-03-24T17:51:29.658Z,101771.97
2023-03-24T17:54:01.405Z,101768.44
2023-03-24T17:56:33.030Z,101761.22
2023-03-24T17:59:05.174Z,101767.16
2023-03-24T18:01:36.556Z,101770.22
2023-03-24T18:04:08.413Z,101773.72
2023-03-24T18:06:40.129Z,101785.72
2023-03-24T18:09:11.273Z,101785.28
2023-03-24T18:11:42.682Z,101790.59
2023-03-24T18:14:14.225Z,101798.91
2023-03-24T18:16:45.696Z,101794.59
2023-03-24T18:19:17.795Z,101793.25
2023-03-24T18:21:49.096Z,101802.34
2023-03-24T18:24:20.284Z,101803.78
2023-03-24T18:26:51.251Z,101803.97
2023-03-24T18:29:25.743Z,101802.66
2023-03-24T18:31:57.388Z,101800.97
2023-03-24T18:34:29.510Z,101800.75
2023-03-24T18:37:01.877Z,101804.50
2023-03-24T18:39:32.331Z,101808.31
2023-03-24T18:42:03.507Z,101804.59
2023-03-24T18:44:34.694Z,101803.38
2023-03-24T18:47:06.231Z,101801.09
2023-03-24T18:49:37.728Z,101800.06
2023-03-24T18:52:09.878Z,101797.38
2023-03-24T18:54:41.291Z,101798.41
2023-03-24T18:57:13.561Z,101797.41
2023-03-24T18:59:45.138Z,101809.19
2023-03-24T19:02:17.037Z,101803.38
2023-03-24T19:04:49.682Z,101804.84
2023-03-24T19:07:26.095Z,101816.41
2023-03-24T19:09:57.975Z,101815.59
2023-03-24T19:12:29.313Z,101822.22
2023-03-24T19:15:00.505Z,101819.28
2023-03-24T19:17:32.472Z,101810.81
2023-03-24T19:20:06.540Z,101811.81
2023-03-24T19:22:38.192Z,101810.44
2023-03-24T19:25:11.000Z,101806.31
2023-03-24T19:27:42.888Z,101822.59
2023-03-24T19:30:14.976Z,101828.16
2023-03-24T19:32:48.243Z,101811.78
2023-03-24T19:35:19.711Z,101820.13
2023-03-24T19:37:50.860Z,101816.03
2023-03-24T19:40:22.109Z,101820.78
2023-03-24T19:42:53.710Z,101811.00
2023-03-24T19:45:25.177Z,101799.75
2023-03-24T19:47:57.250Z,101794.97
2023-03-24T19:50:28.683Z,101793.59
2023-03-24T19:52:59.655Z,101781.75
2023-03-24T19:55:31.460Z,101784.44
2023-03-24T19:58:02.655Z,101781.34
2023-03-24T20:00:34.187Z,101783.13
2023-03-24T20:03:05.655Z,101790.16
2023-03-24T20:05:37.726Z,101785.81
2023-03-24T20:08:08.731Z,101782.59
2023-03-24T20:10:41.767Z,101784.50
2023-03-24T20:13:13.496Z,101788.41
2023-03-24T20:15:45.125Z,101784.97
2023-03-24T20:18:16.742Z,101782.66
2023-03-24T20:20:48.547Z,101772.66
2023-03-24T20:23:19.547Z,101776.53
2023-03-24T20:25:51.395Z,101771.81
2023-03-24T20:28:23.048Z,101773.00
2023-03-24T20:30:54.228Z,101774.88
2023-03-24T20:33:25.429Z,101775.56
2023-03-24T20:36:00.012Z,101770.84
2023-03-24T20:38:32.347Z,101770.28
2023-03-24T20:41:06.770Z,101754.34
2023-03-24T20:43:39.429Z,101761.03
2023-03-24T20:46:11.831Z,101755.03
2023-03-24T20:48:43.456Z,101755.00
2023-03-24T20:51:15.007Z,101766.28
2023-03-24T20:53:48.003Z,101766.19
2023-03-24T20:56:21.012Z,101760.41
2023-03-24T20:58:52.174Z,101765.03
2023-03-24T21:01:24.385Z,101762.16
2023-03-24T21:04:02.108Z,101760.41
2023-03-24T21:06:40.268Z,101759.44
2023-03-24T21:09:11.590Z,101750.31
2023-03-24T21:11:42.973Z,101766.50
2023-03-24T21:14:14.296Z,101767.59
2023-03-24T21:16:45.805Z,101760.06
2023-03-24T21:19:18.037Z,101765.19
2023-03-24T21:21:51.318Z,101770.16
2023-03-24T21:24:22.815Z,101768.47
2023-03-24T21:26:58.378Z,101765.50
2023-03-24T21:29:29.933Z,101771.66
2023-03-24T21:32:01.569Z,101752.25
2023-03-24T21:34:33.049Z,101767.50
2023-03-24T21:37:04.238Z,101758.81
2023-03-24T21:39:35.429Z,101767.78
2023-03-24T21:42:08.431Z,101762.88
2023-03-24T21:44:41.219Z,101758.25
2023-03-24T21:47:12.727Z,101757.41
2023-03-24T21:49:44.469Z,101754.91
2023-03-24T21:52:15.921Z,101763.88
2023-03-24T21:54:47.620Z,101753.38
2023-03-24T21:57:19.331Z,101752.31
2023-03-24T21:59:50.578Z,101744.28
2023-03-24T22:02:24.171Z,101746.31
2023-03-24T22:04:56.496Z,101736.72
2023-03-24T22:07:27.943Z,101739.50
2023-03-24T22:09:59.145Z,101728.50
2023-03-24T22:12:30.506Z,101736.28
2023-03-24T22:15:02.523Z,101730.75
2023-03-24T22:17:34.153Z,101708.53
2023-03-24T22:20:07.760Z,101720.50
2023-03-24T22:22:40.714Z,101718.06
2023-03-24T22:25:14.773Z,101711.88
2023-03-24T22:27:46.526Z,101719.72
2023-03-24T22:30:18.007Z,101708.66
2023-03-24T22:32:49.572Z,101709.03
2023-03-24T22:35:22.791Z,101693.84
2023-03-24T22:37:54.401Z,101697.06
2023-03-24T22:40:25.961Z,101720.28
2023-03-24T22:42:57.286Z,101711.69
2023-03-24T22:45:28.079Z,101709.69
2023-03-24T22:47:59.696Z,101707.84
2023-03-24T22:50:31.143Z,101700.75
2023-03-24T22:53:03.086Z,101699.25
2023-03-24T22:55:34.365Z,101701.56
2023-03-24T22:58:06.058Z,101707.25
2023-03-24T23:00:36.646Z,101695.81
2023-03-24T23:03:08.247Z,101688.06
2023-03-24T23:05:48.531Z,101699.25
2023-03-24T23:08:20.903Z,101687.47
2023-03-24T23:10:52.729Z,101693.25
2023-03-24T23:13:25.178Z,101692.09
2023-03-24T23:15:56.919Z,101691.34
2023-03-24T23:18:28.758Z,101690.34
2023-03-24T23:21:12.531Z,101693.44
2023-03-24T23:23:45.850Z,101682.16
2023-03-24T23:26:26.144Z,101682.41
2023-03-24T23:28:58.448Z,101675.81
2023-03-24T23:31:30.506Z,101669.00
2023-03-24T23:34:02.360Z,101664.31
2023-03-24T23:36:35.587Z,101671.19
2023-03-24T23:39:07.311Z,101664.88
2023-03-24T23:41:38.597Z,101661.22
2023-03-24T23:44:10.510Z,101663.06
2023-03-24T23:46:41.930Z,101653.66
2023-03-24T23:49:13.621Z,101641.25
2023-03-24T23:51:44.994Z,101634.31
2023-03-24T23:54:15.574Z,101636.41
2023-03-24T23:56:48.442Z,101635.44
2023-03-24T23:59:20.129Z,101638.19
